Time;durP1;ratioP1;P1;durP2;ratioP2;P2;SDS_P1;SDS_P2;PMS_P1;PMS_P2;Temp;Humidity;BMP_temperature;BMP_pressure;BME280_temperature;BME280_humidity;BME280_pressure;Samples;Min_cycle;Max_cycle;Signal;HPM_P1;HPM_P2
2022/10/07 00:02:19;;;;;;;10.97;6.83;;;9.10;1.00;;;;;;5064772;28;20486;-81
2022/10/07 00:04:46;;;;;;;13.37;8.00;;;9.00;1.00;;;;;;5056493;28;21239;-79
2022/10/07 00:07:21;;;;;;;12.33;7.23;;;9.00;1.00;;;;;;5071825;28;21324;-80
2022/10/07 00:09:48;;;;;;;13.03;6.63;;;9.00;1.00;;;;;;5059795;28;20547;-82
2022/10/07 00:12:18;;;;;;;11.10;7.30;;;9.00;1.00;;;;;;5062175;28;20990;-78
2022/10/07 00:14:45;;;;;;;11.27;6.65;;;8.90;1.00;;;;;;5061527;28;23216;-80
2022/10/07 00:17:11;;;;;;;14.77;8.25;;;8.80;1.00;;;;;;5060435;28;20245;-81
2022/10/07 00:19:38;;;;;;;10.93;6.32;;;8.80;1.00;;;;;;5067274;28;20231;-79
2022/10/07 00:22:07;;;;;;;11.65;7.03;;;8.80;1.00;;;;;;5059534;28;20237;-81
2022/10/07 00:24:35;;;;;;;9.55;6.40;;;8.80;1.00;;;;;;5062856;28;20291;-81
2022/10/07 00:27:09;;;;;;;13.43;7.82;;;8.70;1.00;;;;;;5059542;28;21131;-79
2022/10/07 00:29:37;;;;;;;11.88;6.85;;;8.60;1.00;;;;;;5061816;28;20283;-81
2022/10/07 00:32:04;;;;;;;13.75;7.50;;;8.60;1.00;;;;;;5061618;28;20244;-82
2022/10/07 00:34:31;;;;;;;12.18;7.60;;;8.70;1.00;;;;;;5060590;28;20245;-80
2022/10/07 00:36:58;;;;;;;12.07;8.00;;;8.70;1.00;;;;;;5064883;28;21115;-81
2022/10/07 00:39:27;;;;;;;13.53;7.20;;;8.70;1.00;;;;;;5061510;28;20343;-80
2022/10/07 00:41:54;;;;;;;14.90;8.37;;;8.70;1.00;;;;;;5065484;28;20462;-79
2022/10/07 00:44:42;;;;;;;10.05;6.82;;;8.70;1.00;;;;;;5063648;28;20467;-80
2022/10/07 00:47:24;;;;;;;17.15;8.05;;;8.80;1.00;;;;;;5061840;28;20240;-81
2022/10/07 00:49:58;;;;;;;9.47;7.00;;;8.80;1.00;;;;;;5065439;28;20232;-81
2022/10/07 00:52:31;;;;;;;12.95;7.53;;;8.70;1.00;;;;;;5061830;28;20494;-80
2022/10/07 00:55:03;;;;;;;11.57;7.28;;;8.80;1.00;;;;;;5063017;28;20783;-81
2022/10/07 00:57:34;;;;;;;12.30;7.68;;;8.70;1.00;;;;;;5060391;28;20236;-80
2022/10/07 01:00:05;;;;;;;10.60;7.13;;;8.80;1.00;;;;;;5062292;28;20248;-80
2022/10/07 01:07:53;;;;;;;11.13;7.27;;;8.70;1.00;;;;;;3141939;26;20233;-84
2022/10/07 01:10:33;;;;;;;13.48;8.25;;;8.70;1.00;;;;;;5025448;28;20425;-84
2022/10/07 01:13:24;;;;;;;16.45;8.55;;;8.70;1.00;;;;;;5045665;28;20233;-84
2022/10/07 01:16:13;;;;;;;10.80;7.28;;;8.70;1.00;;;;;;5027812;28;20240;-87
2022/10/07 01:18:55;;;;;;;14.05;8.40;;;8.60;1.00;;;;;;5031910;28;20226;-81
2022/10/07 01:21:44;;;;;;;15.73;7.60;;;8.60;1.00;;;;;;5037382;28;20222;-85
2022/10/07 01:24:33;;;;;;;11.80;8.48;;;8.60;1.00;;;;;;5026340;28;20469;-85
2022/10/07 01:27:04;;;;;;;11.30;7.68;;;8.50;1.00;;;;;;5019222;28;20230;-84
2022/10/07 01:29:44;;;;;;;15.50;8.45;;;8.50;1.00;;;;;;5034797;28;20236;-84
2022/10/07 01:32:23;;;;;;;14.02;7.32;;;8.40;1.00;;;;;;5026498;28;20226;-85
2022/10/07 01:34:54;;;;;;;14.27;7.80;;;8.50;1.00;;;;;;5034093;28;21073;-80
2022/10/07 01:37:35;;;;;;;11.52;7.00;;;8.50;1.00;;;;;;5033383;28;20230;-84
2022/10/07 01:40:22;;;;;;;12.95;7.72;;;8.40;1.00;;;;;;5036179;28;20226;-79
2022/10/07 01:43:03;;;;;;;12.00;7.60;;;8.40;1.00;;;;;;5029452;28;20218;-78
2022/10/07 01:45:36;;;;;;;9.50;7.10;;;8.40;1.00;;;;;;5019892;28;20468;-78
2022/10/07 01:48:04;;;;;;;13.63;8.32;;;8.50;1.00;;;;;;5035519;28;20260;-80
2022/10/07 01:50:34;;;;;;;13.90;8.40;;;8.50;1.00;;;;;;5030231;28;20245;-80
2022/10/07 01:53:23;;;;;;;12.63;7.60;;;8.40;1.00;;;;;;5028913;28;20296;-83
2022/10/07 01:59:30;;;;;;;14.52;8.00;;;8.20;1.00;;;;;;5009202;28;22532;-81
2022/10/07 02:02:12;;;;;;;13.43;8.00;;;8.10;1.00;;;;;;4994285;28;21158;-84
2022/10/07 02:04:57;;;;;;;13.88;6.95;;;8.00;1.00;;;;;;5026735;28;20228;-80
2022/10/07 02:07:46;;;;;;;12.15;8.10;;;8.00;1.00;;;;;;5032756;28;20246;-83
2022/10/07 02:10:23;;;;;;;13.30;7.97;;;8.00;1.00;;;;;;5040563;28;20300;-83
2022/10/07 02:13:03;;;;;;;12.73;7.40;;;8.00;1.00;;;;;;5025821;28;20314;-79
2022/10/07 02:15:57;;;;;;;12.07;7.40;;;8.00;1.00;;;;;;5027814;28;20230;-78
2022/10/07 02:18:28;;;;;;;13.07;7.95;;;8.00;1.00;;;;;;5028390;28;20237;-80
2022/10/07 02:21:04;;;;;;;11.85;7.55;;;8.00;1.00;;;;;;5008479;28;20240;-81
2022/10/07 02:23:42;;;;;;;8.73;6.97;;;8.10;1.00;;;;;;5035933;28;20226;-80
2022/10/07 02:26:23;;;;;;;11.63;7.68;;;8.20;1.00;;;;;;5030336;28;20297;-80
2022/10/07 02:28:54;;;;;;;14.73;7.57;;;8.20;1.00;;;;;;5033712;28;20238;-79
2022/10/07 02:31:30;;;;;;;9.73;6.88;;;8.20;1.00;;;;;;5036043;28;20312;-82
2022/10/07 02:34:03;;;;;;;12.02;7.65;;;8.10;1.00;;;;;;5033479;28;20272;-81
2022/10/07 02:36:37;;;;;;;13.18;7.72;;;8.00;1.00;;;;;;5032875;28;20278;-81
2022/10/07 02:39:06;;;;;;;11.15;7.40;;;8.00;1.00;;;;;;5035553;28;20242;-82
2022/10/07 02:41:52;;;;;;;11.52;7.07;;;7.90;1.00;;;;;;5033652;28;20289;-81
2022/10/07 02:44:33;;;;;;;17.58;7.68;;;7.80;1.00;;;;;;5031191;28;20230;-82
2022/10/07 02:47:16;;;;;;;12.82;8.07;;;7.80;1.00;;;;;;5031736;28;20289;-83
2022/10/07 02:49:48;;;;;;;10.43;7.47;;;7.80;1.00;;;;;;5031780;28;20298;-83
2022/10/07 02:52:23;;;;;;;13.25;8.27;;;7.80;1.00;;;;;;5035568;28;20300;-82
2022/10/07 02:55:04;;;;;;;12.45;7.70;;;7.70;1.00;;;;;;5032934;28;20240;-84
2022/10/07 02:57:53;;;;;;;16.17;8.48;;;7.70;1.00;;;;;;5035863;28;20224;-84
2022/10/07 03:00:26;;;;;;;12.35;8.43;;;7.80;1.00;;;;;;5032408;28;20234;-82
2022/10/07 03:03:04;;;;;;;12.10;8.20;;;7.80;1.00;;;;;;5032702;28;20234;-83
2022/10/07 03:05:37;;;;;;;11.63;7.68;;;7.90;1.00;;;;;;5034942;28;20238;-82
2022/10/07 03:08:16;;;;;;;12.98;8.15;;;7.90;1.00;;;;;;5005201;28;20327;-82
2022/10/07 03:10:46;;;;;;;16.83;8.25;;;7.90;1.00;;;;;;5013639;28;20238;-82
2022/10/07 03:13:25;;;;;;;17.02;7.70;;;7.80;1.00;;;;;;5013371;28;20235;-81
2022/10/07 03:15:53;;;;;;;14.88;9.45;;;7.90;1.00;;;;;;5016667;28;20246;-84
2022/10/07 03:18:34;;;;;;;15.52;8.05;;;7.80;1.00;;;;;;5019779;28;20333;-85
2022/10/07 03:21:07;;;;;;;15.55;8.95;;;7.70;1.00;;;;;;5022937;28;20249;-84
2022/10/07 03:23:35;;;;;;;11.52;8.48;;;7.60;1.00;;;;;;5018420;28;20229;-84
2022/10/07 03:26:13;;;;;;;13.95;7.88;;;7.50;1.00;;;;;;5019114;28;20243;-85
2022/10/07 03:29:07;;;;;;;12.05;7.55;;;7.50;1.00;;;;;;5018866;28;20213;-85
2022/10/07 03:32:05;;;;;;;12.40;7.78;;;7.40;1.00;;;;;;5019856;28;20234;-83
2022/10/07 03:34:37;;;;;;;14.10;8.85;;;7.40;1.00;;;;;;5024271;28;20337;-85
2022/10/07 03:37:05;;;;;;;12.60;7.80;;;7.40;1.00;;;;;;5022388;28;20242;-84
2022/10/07 03:39:36;;;;;;;15.45;8.65;;;7.40;1.00;;;;;;5018714;28;20238;-84
2022/10/07 03:42:07;;;;;;;11.45;8.23;;;7.30;1.00;;;;;;5018985;28;20301;-85
2022/10/07 03:44:37;;;;;;;12.73;8.68;;;7.30;1.00;;;;;;5015402;28;21038;-85
2022/10/07 03:47:13;;;;;;;13.50;8.52;;;7.30;1.00;;;;;;5008993;28;20250;-85
2022/10/07 03:49:44;;;;;;;15.10;9.15;;;7.30;1.00;;;;;;5015598;28;20234;-85
2022/10/07 03:52:14;;;;;;;14.32;8.85;;;7.30;1.00;;;;;;5020385;28;20242;-85
2022/10/07 03:54:43;;;;;;;15.00;9.07;;;7.20;1.00;;;;;;5017820;28;20234;-85
2022/10/07 03:59:59;;;;;;;12.98;8.10;;;7.10;1.00;;;;;;5018060;28;20241;-85
2022/10/07 04:02:28;;;;;;;14.52;8.70;;;7.20;1.00;;;;;;5013982;28;20250;-84
2022/10/07 04:05:01;;;;;;;14.45;8.63;;;7.20;1.00;;;;;;5013203;28;20270;-86
2022/10/07 04:07:28;;;;;;;12.52;7.93;;;7.20;1.00;;;;;;5016546;28;20316;-86
2022/10/07 04:09:57;;;;;;;15.68;9.00;;;7.30;1.00;;;;;;5011498;28;20282;-86
2022/10/07 04:12:24;;;;;;;13.70;9.15;;;7.30;1.00;;;;;;4999150;28;20239;-87
2022/10/07 04:14:53;;;;;;;15.25;9.23;;;7.20;1.00;;;;;;5017533;28;20250;-84
2022/10/07 04:17:24;;;;;;;16.15;9.32;;;7.20;1.00;;;;;;5013340;28;21196;-83
2022/10/07 04:19:53;;;;;;;13.75;9.57;;;7.10;1.00;;;;;;5003443;28;20249;-80
2022/10/07 04:22:27;;;;;;;14.18;8.45;;;7.10;1.00;;;;;;5008881;28;20242;-82
2022/10/07 04:27:39;;;;;;;13.73;9.00;;;7.10;1.00;;;;;;5009885;28;20229;-81
2022/10/07 04:30:09;;;;;;;15.65;8.93;;;7.10;1.00;;;;;;5006276;28;20239;-80
2022/10/07 04:32:42;;;;;;;14.27;9.18;;;7.10;1.00;;;;;;5012086;28;20239;-82
2022/10/07 04:35:13;;;;;;;12.82;9.05;;;7.00;1.00;;;;;;5011894;28;20614;-81
2022/10/07 04:37:42;;;;;;;15.32;10.38;;;7.00;1.00;;;;;;5011585;28;20231;-81
2022/10/07 04:40:10;;;;;;;14.45;9.00;;;7.00;1.00;;;;;;5011027;28;20245;-81
2022/10/07 04:45:22;;;;;;;15.65;8.50;;;7.00;1.00;;;;;;5007812;28;20304;-82
2022/10/07 04:47:52;;;;;;;13.98;9.45;;;7.00;1.00;;;;;;5001261;28;20273;-80
2022/10/07 04:50:19;;;;;;;15.05;8.90;;;7.00;1.00;;;;;;5012388;28;20238;-82
2022/10/07 04:52:48;;;;;;;14.25;8.77;;;7.00;1.00;;;;;;5012079;28;20239;-80
2022/10/07 04:55:18;;;;;;;14.32;8.77;;;7.00;1.00;;;;;;5011385;28;20977;-80
2022/10/07 04:57:45;;;;;;;14.98;8.65;;;6.90;1.00;;;;;;5004670;28;21743;-82
2022/10/07 05:00:17;;;;;;;15.75;7.90;;;6.90;1.00;;;;;;5006117;28;20242;-81
2022/10/07 05:02:49;;;;;;;17.30;10.32;;;6.90;1.00;;;;;;4989951;28;21035;-81
2022/10/07 05:05:17;;;;;;;11.85;8.20;;;6.90;1.00;;;;;;5005659;28;20753;-81
2022/10/07 05:07:48;;;;;;;18.77;9.18;;;6.90;1.00;;;;;;5016992;28;20249;-81
2022/10/07 05:10:17;;;;;;;15.15;8.32;;;6.90;1.00;;;;;;5009915;28;20246;-80
2022/10/07 05:12:44;;;;;;;14.00;9.00;;;6.80;1.00;;;;;;5025921;28;20238;-81
2022/10/07 05:15:12;;;;;;;12.40;8.30;;;6.90;1.00;;;;;;5023595;28;20246;-81
2022/10/07 05:17:39;;;;;;;15.68;10.02;;;6.90;1.00;;;;;;5019804;28;20238;-81
2022/10/07 05:20:09;;;;;;;12.55;8.68;;;6.90;1.00;;;;;;5020470;28;20324;-81
2022/10/07 05:22:36;;;;;;;14.43;9.05;;;7.00;1.00;;;;;;5021933;28;20242;-83
2022/10/07 05:30:17;;;;;;;13.10;8.40;;;7.00;1.00;;;;;;3225293;26;20243;-85
2022/10/07 05:32:47;;;;;;;11.20;8.88;;;7.00;1.00;;;;;;4988278;28;20251;-87
2022/10/07 05:35:15;;;;;;;16.45;8.73;;;7.00;1.00;;;;;;4989510;28;20254;-86
2022/10/07 05:37:44;;;;;;;15.15;9.23;;;7.00;1.00;;;;;;4991240;28;20326;-82
2022/10/07 05:40:11;;;;;;;13.90;8.40;;;7.00;1.00;;;;;;4987432;28;20257;-80
2022/10/07 05:42:40;;;;;;;11.80;8.07;;;7.10;1.00;;;;;;4986030;28;20289;-80
2022/10/07 05:45:10;;;;;;;16.70;8.88;;;7.10;1.00;;;;;;4992141;28;21148;-82
2022/10/07 05:47:42;;;;;;;17.05;11.40;;;7.10;1.00;;;;;;4992218;28;20306;-80
2022/10/07 05:50:15;;;;;;;12.77;10.32;;;7.10;1.00;;;;;;4996752;28;20243;-81
2022/10/07 05:52:46;;;;;;;16.55;8.80;;;7.10;1.00;;;;;;4995254;28;20393;-88
2022/10/07 05:55:17;;;;;;;14.00;9.00;;;7.10;1.00;;;;;;4991448;28;20273;-87
2022/10/07 05:57:47;;;;;;;13.05;8.73;;;7.20;1.00;;;;;;4976379;28;20243;-89
2022/10/07 06:00:27;;;;;;;14.25;9.13;;;7.20;1.00;;;;;;4982522;28;20255;-89
2022/10/07 06:03:06;;;;;;;11.20;7.80;;;7.20;1.00;;;;;;4996778;28;20239;-83
2022/10/07 06:05:36;;;;;;;15.63;8.52;;;7.10;1.00;;;;;;4992316;28;20254;-82
2022/10/07 06:08:04;;;;;;;16.38;10.27;;;7.20;1.00;;;;;;4993362;28;20239;-80
2022/10/07 06:13:21;;;;;;;13.43;9.07;;;7.30;1.00;;;;;;4990775;28;20239;-80
2022/10/07 06:16:16;;;;;;;15.02;9.93;;;7.30;1.00;;;;;;4988614;28;20266;-78
2022/10/07 06:18:56;;;;;;;16.23;10.00;;;7.40;1.00;;;;;;4993527;28;20473;-82
2022/10/07 06:21:27;;;;;;;14.80;9.30;;;7.30;1.00;;;;;;4996164;28;20294;-84
2022/10/07 06:23:58;;;;;;;19.45;10.52;;;7.40;1.00;;;;;;4996566;28;20726;-84
2022/10/07 06:26:25;;;;;;;16.38;11.15;;;7.50;1.00;;;;;;4998397;28;20302;-86
2022/10/07 06:29:08;;;;;;;;;;;;;;;;;;;;;
2022/10/07 06:31:36;;;;;;;15.27;11.65;;;7.60;1.00;;;;;;5000312;28;38791;-87
2022/10/07 06:34:18;;;;;;;17.10;12.30;;;7.70;1.00;;;;;;4997572;28;20329;-85
2022/10/07 06:37:05;;;;;;;17.98;10.48;;;7.70;1.00;;;;;;4998065;28;20239;-84
2022/10/07 06:39:32;;;;;;;16.40;11.60;;;7.80;1.00;;;;;;4989123;28;20231;-84
2022/10/07 06:41:59;;;;;;;21.35;11.48;;;7.90;1.00;;;;;;4987789;28;20325;-79
2022/10/07 06:44:29;;;;;;;16.35;10.50;;;8.10;1.00;;;;;;4990480;28;21197;-80
2022/10/07 06:46:56;;;;;;;16.98;11.15;;;8.10;1.00;;;;;;4985516;28;20295;-80
2022/10/07 06:49:26;;;;;;;17.83;11.75;;;8.20;1.00;;;;;;4988078;28;20247;-81
2022/10/07 06:52:07;;;;;;;14.05;11.07;;;8.30;1.00;;;;;;4986474;28;20259;-80
2022/10/07 06:54:34;;;;;;;16.52;10.32;;;8.40;1.00;;;;;;4988118;28;20666;-80
2022/10/07 06:57:04;;;;;;;13.98;11.32;;;8.40;1.00;;;;;;4992211;28;20715;-80
2022/10/07 06:59:31;;;;;;;25.10;15.07;;;8.60;1.00;;;;;;4985582;28;20243;-79
2022/10/07 07:01:59;;;;;;;16.97;11.47;;;8.70;1.00;;;;;;4990397;28;20239;-82
2022/10/07 07:04:27;;;;;;;16.40;10.90;;;8.80;1.00;;;;;;4988118;28;20640;-81
2022/10/07 07:06:56;;;;;;;19.58;10.75;;;8.90;1.00;;;;;;4989470;28;20250;-82
2022/10/07 07:09:24;;;;;;;14.50;9.98;;;9.10;1.00;;;;;;4995733;28;20246;-81
2022/10/07 07:11:58;;;;;;;14.00;9.50;;;9.20;1.00;;;;;;4998367;28;20236;-82
2022/10/07 07:14:27;;;;;;;15.70;10.50;;;9.30;1.00;;;;;;4997687;28;21282;-82
2022/10/07 07:17:05;;;;;;;16.00;10.37;;;9.40;1.00;;;;;;4994002;28;20455;-83
2022/10/07 07:19:36;;;;;;;14.83;9.83;;;9.50;1.00;;;;;;4992329;28;20443;-84
2022/10/07 07:22:06;;;;;;;12.73;9.07;;;9.70;1.00;;;;;;4992060;28;20555;-83
2022/10/07 07:24:56;;;;;;;13.47;9.60;;;9.80;1.00;;;;;;4983928;28;20480;-83
2022/10/07 07:27:26;;;;;;;15.73;11.77;;;9.90;1.00;;;;;;4997851;28;20434;-84
2022/10/07 07:29:56;;;;;;;17.83;10.27;;;10.10;1.00;;;;;;4994455;28;20514;-84
2022/10/07 07:32:26;;;;;;;14.20;10.17;;;10.10;1.00;;;;;;4998397;28;20471;-84
2022/10/07 07:34:59;;;;;;;12.97;9.83;;;10.20;1.00;;;;;;4994043;28;20471;-83
2022/10/07 07:37:28;;;;;;;18.53;9.13;;;10.30;1.00;;;;;;4994387;28;20491;-84
2022/10/07 07:39:55;;;;;;;14.90;10.27;;;10.40;1.00;;;;;;4993041;28;20466;-85
2022/10/07 07:42:27;;;;;;;14.73;10.10;;;10.60;1.00;;;;;;4991573;28;20504;-85
2022/10/07 07:44:57;;;;;;;11.93;9.03;;;10.70;1.00;;;;;;4970500;28;20446;-86
2022/10/07 07:47:26;;;;;;;13.53;9.47;;;10.90;1.00;;;;;;4995810;28;20431;-85
2022/10/07 07:49:56;;;;;;;12.00;9.00;;;10.90;1.00;;;;;;4998046;28;20668;-87
2022/10/07 07:52:24;;;;;;;12.20;8.43;;;11.00;1.00;;;;;;4995828;28;20459;-84
2022/10/07 07:54:56;;;;;;;11.20;9.47;;;11.10;1.00;;;;;;4984901;28;21346;-86
2022/10/07 07:57:24;;;;;;;14.68;9.70;;;11.20;1.00;;;;;;4993455;28;20474;-84
2022/10/07 08:00:04;;;;;;;13.80;10.50;;;11.30;1.00;;;;;;4988105;28;20250;-85
2022/10/07 08:02:35;;;;;;;15.60;8.63;;;11.50;1.00;;;;;;4985956;28;20459;-83
2022/10/07 08:05:06;;;;;;;15.20;9.93;;;11.60;1.00;;;;;;5000129;28;20470;-84
2022/10/07 08:07:37;;;;;;;13.17;8.73;;;11.90;1.00;;;;;;4993321;28;20474;-83
2022/10/07 08:10:06;;;;;;;12.70;8.30;;;12.10;1.00;;;;;;4992780;28;20447;-84
2022/10/07 08:12:38;;;;;;;12.90;8.13;;;12.30;1.00;;;;;;4982421;28;20472;-85
2022/10/07 08:15:06;;;;;;;11.50;7.73;;;12.40;1.00;;;;;;4996454;28;21246;-84
2022/10/07 08:17:40;;;;;;;14.63;8.20;;;12.60;1.00;;;;;;4999279;28;20459;-85
2022/10/07 08:20:16;;;;;;;13.47;7.43;;;12.80;1.00;;;;;;4989944;28;20462;-82
2022/10/07 08:22:46;;;;;;;12.10;7.70;;;12.90;1.00;;;;;;4992039;28;20491;-82
2022/10/07 08:25:15;;;;;;;9.80;6.80;;;13.10;1.00;;;;;;4997447;28;20463;-83
2022/10/07 08:27:42;;;;;;;11.77;7.83;;;13.20;1.00;;;;;;4992549;28;20479;-83
2022/10/07 08:30:12;;;;;;;12.20;8.30;;;13.40;1.00;;;;;;4991443;28;20470;-83
2022/10/07 08:32:40;;;;;;;11.73;7.73;;;13.40;1.00;;;;;;4989558;28;20473;-82
2022/10/07 08:35:09;;;;;;;9.30;6.23;;;13.50;1.00;;;;;;4993501;28;20484;-81
2022/10/07 08:37:35;;;;;;;11.00;7.33;;;13.70;1.00;;;;;;4987840;28;20459;-81
2022/10/07 08:40:12;;;;;;;14.33;7.97;;;13.90;1.00;;;;;;4991268;28;20459;-81
2022/10/07 08:42:42;;;;;;;10.37;6.50;;;14.10;1.00;;;;;;4988420;28;21023;-81
2022/10/07 08:45:15;;;;;;;14.53;7.43;;;14.80;1.00;;;;;;4988384;28;20464;-84
2022/10/07 08:47:45;;;;;;;9.30;6.83;;;16.10;1.00;;;;;;4988931;28;21132;-82
2022/10/07 08:50:17;;;;;;;11.97;6.33;;;18.00;1.00;;;;;;4988495;28;20481;-81
2022/10/07 08:52:53;;;;;;;10.53;6.77;;;19.60;1.00;;;;;;4987058;28;20542;-82
2022/10/07 08:55:36;;;;;;;6.87;5.50;;;20.90;1.00;;;;;;4988165;28;20532;-80
2022/10/07 08:58:34;;;;;;;9.50;6.20;;;22.00;1.00;;;;;;4990093;28;20471;-82
2022/10/07 09:01:07;;;;;;;12.07;6.43;;;22.90;1.00;;;;;;4988063;28;20474;-80
2022/10/07 09:03:42;;;;;;;7.80;6.27;;;23.80;1.00;;;;;;4987952;28;20940;-81
2022/10/07 09:06:18;;;;;;;10.30;5.30;;;24.80;1.00;;;;;;4989784;28;20593;-83
2022/10/07 09:08:52;;;;;;;8.60;5.50;;;25.50;1.00;;;;;;4992648;28;20478;-82
2022/10/07 09:11:24;;;;;;;10.27;5.50;;;26.20;1.00;;;;;;4991569;28;20546;-81
2022/10/07 09:13:56;;;;;;;8.20;4.90;;;26.70;1.00;;;;;;4988187;28;20527;-81
2022/10/07 09:16:28;;;;;;;9.67;6.57;;;27.50;1.00;;;;;;4986937;28;20565;-83
2022/10/07 09:18:59;;;;;;;8.20;6.13;;;28.30;1.00;;;;;;4984996;28;20655;-82
2022/10/07 09:21:34;;;;;;;7.20;5.60;;;27.40;1.00;;;;;;4986320;28;20866;-83
2022/10/07 09:24:15;;;;;;;9.30;6.43;;;27.20;1.00;;;;;;4990645;28;20477;-82
2022/10/07 09:26:42;;;;;;;7.93;5.70;;;27.00;1.00;;;;;;4988229;28;20871;-85
2022/10/07 09:29:26;;;;;;;4.97;4.43;;;26.80;1.00;;;;;;4986694;28;20470;-87
2022/10/07 09:31:54;;;;;;;7.23;5.03;;;26.50;1.00;;;;;;4986141;28;20455;-82
2022/10/07 09:34:25;;;;;;;10.20;5.27;;;25.70;1.00;;;;;;4993663;28;20550;-80
2022/10/07 09:37:13;;;;;;;7.50;5.00;;;25.20;1.00;;;;;;4982061;28;20470;-80
2022/10/07 09:39:44;;;;;;;5.60;4.63;;;24.90;1.00;;;;;;4968161;28;20469;-79
2022/10/07 09:42:29;;;;;;;7.77;4.57;;;24.20;1.00;;;;;;4974687;28;21828;-80
2022/10/07 09:45:00;;;;;;;7.70;3.60;;;23.00;1.00;;;;;;4986868;28;20471;-80
2022/10/07 09:47:30;;;;;;;9.00;4.93;;;22.50;1.00;;;;;;4970650;28;20662;-79
2022/10/07 09:49:59;;;;;;;5.67;3.97;;;22.30;1.00;;;;;;4980537;28;20463;-80
2022/10/07 09:52:29;;;;;;;8.40;5.13;;;21.50;1.00;;;;;;4982707;28;20502;-79
2022/10/07 09:55:18;;;;;;;5.93;3.77;;;21.00;1.00;;;;;;4979428;28;20490;-79
2022/10/07 09:58:02;;;;;;;6.03;4.03;;;20.40;1.00;;;;;;4985537;28;20487;-87
2022/10/07 10:00:30;;;;;;;6.00;3.63;;;19.60;1.00;;;;;;4978066;28;21023;-82
2022/10/07 10:03:05;;;;;;;5.00;3.90;;;19.30;1.00;;;;;;4980573;28;20974;-80
2022/10/07 10:05:34;;;;;;;5.27;3.33;;;19.40;1.00;;;;;;4988804;28;21014;-80
2022/10/07 10:08:05;;;;;;;6.13;3.30;;;20.20;1.00;;;;;;4992438;28;20470;-80
2022/10/07 10:10:33;;;;;;;5.87;3.73;;;20.90;1.00;;;;;;4990217;28;21187;-80
2022/10/07 10:13:04;;;;;;;6.03;2.97;;;21.60;1.00;;;;;;4982888;28;20452;-79
2022/10/07 10:15:40;;;;;;;5.73;3.37;;;22.10;1.00;;;;;;4985571;28;20546;-81
2022/10/07 10:18:27;;;;;;;6.47;4.30;;;22.10;1.00;;;;;;4984329;28;20487;-80
2022/10/07 10:20:55;;;;;;;6.10;3.57;;;22.70;1.00;;;;;;4979160;28;20914;-80
2022/10/07 10:23:35;;;;;;;6.57;3.57;;;24.00;1.00;;;;;;4986941;28;20473;-86
2022/10/07 10:26:24;;;;;;;4.90;3.93;;;26.00;1.00;;;;;;4987874;28;20898;-80
2022/10/07 10:29:12;;;;;;;7.47;3.67;;;27.50;1.00;;;;;;4983853;28;20494;-78
2022/10/07 10:32:02;;;;;;;5.03;3.60;;;28.90;1.00;;;;;;4988353;28;21263;-78
2022/10/07 10:34:39;;;;;;;7.03;3.20;;;28.10;1.00;;;;;;4985463;28;20463;-79
2022/10/07 10:37:17;;;;;;;5.83;3.73;;;26.00;1.00;;;;;;4988511;28;20477;-78
2022/10/07 10:39:56;;;;;;;5.13;3.47;;;24.80;1.00;;;;;;4982254;28;20478;-78
2022/10/07 10:42:33;;;;;;;5.50;3.70;;;23.70;1.00;;;;;;4973788;28;21009;-79
2022/10/07 10:45:26;;;;;;;6.93;3.40;;;23.30;1.00;;;;;;4993660;28;20470;-79
2022/10/07 10:48:10;;;;;;;8.23;3.40;;;23.50;1.00;;;;;;4983250;28;20471;-78
2022/10/07 10:50:47;;;;;;;5.47;3.50;;;24.60;1.00;;;;;;4983119;28;20621;-79
2022/10/07 10:53:32;;;;;;;6.80;3.00;;;25.10;1.00;;;;;;4993811;28;20470;-79
2022/10/07 10:56:16;;;;;;;6.30;3.47;;;26.50;1.00;;;;;;4990479;28;20454;-81
2022/10/07 10:59:11;;;;;;;9.93;3.50;;;28.00;1.00;;;;;;4988626;28;20459;-84
2022/10/07 11:01:39;;;;;;;4.40;2.90;;;29.00;1.00;;;;;;4995163;28;20475;-87
2022/10/07 11:04:30;;;;;;;4.97;3.33;;;28.10;1.00;;;;;;4998427;28;20461;-86
2022/10/07 11:07:01;;;;;;;4.83;3.27;;;27.80;1.00;;;;;;4988064;28;20489;-86
2022/10/07 11:09:37;;;;;;;4.47;3.27;;;29.50;1.00;;;;;;4980462;28;20465;-84
2022/10/07 11:12:18;;;;;;;4.70;2.40;;;31.80;1.00;;;;;;4997278;28;20494;-84
2022/10/07 11:14:51;;;;;;;4.60;2.63;;;33.70;1.00;;;;;;4990545;28;21336;-86
2022/10/07 11:17:26;;;;;;;5.17;3.30;;;33.70;1.00;;;;;;4996705;28;21723;-85
2022/10/07 11:20:04;;;;;;;4.90;2.73;;;33.00;1.00;;;;;;4982301;28;20506;-85
2022/10/07 11:22:37;;;;;;;3.50;2.77;;;33.30;1.00;;;;;;4987626;28;20505;-85
2022/10/07 11:25:14;;;;;;;4.97;3.50;;;33.60;1.00;;;;;;4991970;28;20510;-84
2022/10/07 11:27:46;;;;;;;5.27;2.77;;;34.00;1.00;;;;;;4996157;28;20479;-85
2022/10/07 11:30:19;;;;;;;9.00;3.20;;;34.10;1.00;;;;;;4999861;28;20491;-85
2022/10/07 11:32:57;;;;;;;6.03;3.10;;;33.30;1.00;;;;;;5000542;28;20505;-85
2022/10/07 11:35:30;;;;;;;13.13;3.67;;;32.80;1.00;;;;;;4996320;28;20451;-84
2022/10/07 11:38:05;;;;;;;3.80;2.80;;;33.30;1.00;;;;;;4997033;28;20490;-83
2022/10/07 11:40:36;;;;;;;3.53;2.60;;;33.70;1.00;;;;;;4989175;28;20613;-85
2022/10/07 11:43:14;;;;;;;3.17;2.40;;;34.50;1.00;;;;;;4988266;28;20470;-83
2022/10/07 11:45:48;;;;;;;6.10;2.90;;;35.30;1.00;;;;;;4989834;28;20462;-82
2022/10/07 11:48:21;;;;;;;6.00;3.37;;;35.90;1.00;;;;;;4999671;28;20502;-84
2022/10/07 11:50:53;;;;;;;3.97;2.70;;;36.30;1.00;;;;;;4994389;28;21021;-84
2022/10/07 11:53:25;;;;;;;4.73;2.63;;;36.70;1.00;;;;;;4989227;28;20478;-87
2022/10/07 11:56:03;;;;;;;3.20;2.70;;;37.20;1.00;;;;;;4994450;28;20899;-87
2022/10/07 11:58:36;;;;;;;3.20;2.63;;;37.60;1.00;;;;;;4993460;28;20542;-85
2022/10/07 12:01:49;;;;;;;4.47;2.97;;;37.50;1.00;;;;;;4969753;28;20478;-85
2022/10/07 12:04:34;;;;;;;2.83;2.23;;;37.00;1.00;;;;;;4991346;28;20439;-84
2022/10/07 12:07:37;;;;;;;4.23;2.00;;;36.60;1.00;;;;;;4980140;28;20459;-83
2022/10/07 12:10:23;;;;;;;3.90;2.27;;;37.20;1.00;;;;;;4994759;28;20593;-86
2022/10/07 12:13:03;;;;;;;3.40;2.37;;;36.80;1.00;;;;;;4992618;28;20444;-85
2022/10/07 12:15:34;;;;;;;5.43;2.70;;;34.20;1.00;;;;;;4990469;28;20478;-82
2022/10/07 12:18:26;;;;;;;5.43;3.00;;;31.50;1.00;;;;;;4988919;28;20479;-83
2022/10/07 12:21:02;;;;;;;5.17;2.40;;;29.40;1.00;;;;;;4988381;28;20480;-82
2022/10/07 12:24:12;;;;;;;4.73;2.60;;;28.90;1.00;;;;;;4983624;28;20458;-82
2022/10/07 12:26:47;;;;;;;6.67;3.37;;;28.40;1.00;;;;;;4983665;28;20481;-84
2022/10/07 12:29:33;;;;;;;5.53;2.50;;;28.10;1.00;;;;;;4989940;28;20419;-83
2022/10/07 12:32:24;;;;;;;4.47;2.63;;;27.50;1.00;;;;;;4991892;28;20939;-83
2022/10/07 12:34:51;;;;;;;5.10;3.23;;;28.10;1.00;;;;;;4997234;28;20448;-80
2022/10/07 12:37:50;;;;;;;5.73;2.70;;;28.90;1.00;;;;;;4991135;28;20471;-80
2022/10/07 12:40:22;;;;;;;3.67;2.60;;;29.10;1.00;;;;;;4983806;28;20447;-79
2022/10/07 12:42:56;;;;;;;4.93;3.13;;;28.00;1.00;;;;;;4982828;28;20467;-80
2022/10/07 12:45:27;;;;;;;2.80;2.30;;;27.40;1.00;;;;;;4989658;28;20930;-80
2022/10/07 12:47:59;;;;;;;4.90;2.60;;;27.20;1.00;;;;;;4997193;28;20466;-81
2022/10/07 12:50:31;;;;;;;3.60;2.67;;;27.00;1.00;;;;;;4986464;28;20451;-78
2022/10/07 12:53:02;;;;;;;6.13;2.40;;;25.90;1.00;;;;;;4989020;28;20423;-79
2022/10/07 12:55:41;;;;;;;4.70;2.50;;;24.90;1.00;;;;;;4991692;28;20483;-79
2022/10/07 13:01:37;;;;;;;5.70;2.97;;;23.30;1.00;;;;;;4995007;28;20459;-82
2022/10/07 13:04:30;;;;;;;5.03;2.07;;;22.90;1.00;;;;;;5001196;28;20509;-81
2022/10/07 13:07:29;;;;;;;4.27;2.37;;;22.90;1.00;;;;;;4993663;28;20470;-79
2022/10/07 13:10:31;;;;;;;3.73;2.10;;;22.60;1.00;;;;;;4965028;28;20466;-83
2022/10/07 13:13:06;;;;;;;5.10;3.20;;;22.20;1.00;;;;;;4993822;28;20415;-82
2022/10/07 13:16:00;;;;;;;5.17;3.10;;;21.90;1.00;;;;;;4980197;28;20454;-81
2022/10/07 13:18:40;;;;;;;6.00;2.93;;;21.70;1.00;;;;;;4984787;28;20502;-83
2022/10/07 13:21:37;;;;;;;3.80;2.53;;;21.20;1.00;;;;;;4988604;28;20614;-85
2022/10/07 13:24:20;;;;;;;7.87;2.67;;;20.90;1.00;;;;;;4972720;28;20556;-81
2022/10/07 13:26:51;;;;;;;6.87;2.63;;;20.60;1.00;;;;;;4970621;28;20527;-80
2022/10/07 13:29:23;;;;;;;3.70;2.53;;;20.50;1.00;;;;;;4987697;28;20945;-80
2022/10/07 13:32:04;;;;;;;15.43;3.40;;;20.40;1.00;;;;;;4991747;28;20463;-80
2022/10/07 13:34:34;;;;;;;5.97;3.03;;;20.20;1.00;;;;;;4994254;28;20561;-83
2022/10/07 13:37:02;;;;;;;6.10;2.93;;;20.30;1.00;;;;;;4984669;28;20906;-81
2022/10/07 13:39:33;;;;;;;3.20;2.30;;;20.10;1.00;;;;;;4993776;28;20467;-78
2022/10/07 13:42:01;;;;;;;4.83;2.70;;;20.10;1.00;;;;;;4991198;28;20475;-80
2022/10/07 13:44:31;;;;;;;4.83;2.40;;;20.00;1.00;;;;;;4990025;28;20470;-79
2022/10/07 13:47:00;;;;;;;8.50;2.77;;;20.00;1.00;;;;;;4992135;28;20475;-78
2022/10/07 13:49:30;;;;;;;6.43;2.40;;;19.80;1.00;;;;;;4991634;28;20930;-79
2022/10/07 13:52:16;;;;;;;5.07;2.60;;;19.70;1.00;;;;;;4995667;28;20438;-79
2022/10/07 13:54:50;;;;;;;4.67;2.30;;;19.60;1.00;;;;;;4983993;28;20437;-79
2022/10/07 13:57:19;;;;;;;6.33;3.30;;;19.60;1.00;;;;;;4996508;28;20506;-78
2022/10/07 13:59:50;;;;;;;3.87;2.60;;;19.50;1.00;;;;;;4996814;28;20470;-81
2022/10/07 14:02:20;;;;;;;5.07;2.50;;;19.40;1.00;;;;;;4996909;28;20504;-82
2022/10/07 14:04:56;;;;;;;3.67;2.03;;;19.40;1.00;;;;;;4972890;28;20525;-80